sensor_id;sensor_type;location;lat;lon;timestamp;P1;P2;P0
77515;PMS5003;66627;29.424;-98.496;2023-05-07T00:00:11;53;48;
77515;PMS5003;66627;29.424;-98.496;2023-05-07T00:02:36;60;56;
77515;PMS5003;66627;29.424;-98.496;2023-05-07T00:05:01;52;51;
77515;PMS5003;66627;29.424;-98.496;2023-05-07T00:07:27;46;44;
77515;PMS5003;66627;29.424;-98.496;2023-05-07T00:09:52;55;52;
77515;PMS5003;66627;29.424;-98.496;2023-05-07T00:12:18;52;48;
77515;PMS5003;66627;29.424;-98.496;2023-05-07T00:14:43;52;48;
77515;PMS5003;66627;29.424;-98.496;2023-05-07T00:17:09;60;55;
77515;PMS5003;66627;29.424;-98.496;2023-05-07T00:19:34;50;47;
77515;PMS5003;66627;29.424;-98.496;2023-05-07T00:22:00;49;44;
77515;PMS5003;66627;29.424;-98.496;2023-05-07T00:24:25;53;47;
77515;PMS5003;66627;29.424;-98.496;2023-05-07T00:26:51;56;48;
77515;PMS5003;66627;29.424;-98.496;2023-05-07T00:29:17;53;51;
77515;PMS5003;66627;29.424;-98.496;2023-05-07T00:31:43;48;45;
77515;PMS5003;66627;29.424;-98.496;2023-05-07T00:34:08;51;48;
77515;PMS5003;66627;29.424;-98.496;2023-05-07T00:36:38;50;47;
77515;PMS5003;66627;29.424;-98.496;2023-05-07T00:38:59;51;44;
77515;PMS5003;66627;29.424;-98.496;2023-05-07T00:41:24;51;46;
77515;PMS5003;66627;29.424;-98.496;2023-05-07T00:43:50;49;46;
77515;PMS5003;66627;29.424;-98.496;2023-05-07T00:46:16;57;49;
77515;PMS5003;66627;29.424;-98.496;2023-05-07T00:48:41;47;46;
77515;PMS5003;66627;29.424;-98.496;2023-05-07T00:51:06;54;50;
77515;PMS5003;66627;29.424;-98.496;2023-05-07T00:53:31;51;49;
77515;PMS5003;66627;29.424;-98.496;2023-05-07T00:55:57;50;47;
77515;PMS5003;66627;29.424;-98.496;2023-05-07T00:58:27;53;47;
77515;PMS5003;66627;29.424;-98.496;2023-05-07T01:00:48;54;49;
77515;PMS5003;66627;29.424;-98.496;2023-05-07T01:03:14;59;52;
77515;PMS5003;66627;29.424;-98.496;2023-05-07T01:05:39;60;56;
77515;PMS5003;66627;29.424;-98.496;2023-05-07T01:08:05;64;55;
77515;PMS5003;66627;29.424;-98.496;2023-05-07T01:10:30;58;55;
77515;PMS5003;66627;29.424;-98.496;2023-05-07T01:12:56;64;55;
77515;PMS5003;66627;29.424;-98.496;2023-05-07T01:15:21;56;52;
77515;PMS5003;66627;29.424;-98.496;2023-05-07T01:17:52;63;58;
77515;PMS5003;66627;29.424;-98.496;2023-05-07T01:20:12;58;56;
77515;PMS5003;66627;29.424;-98.496;2023-05-07T01:22:38;60;57;
77515;PMS5003;66627;29.424;-98.496;2023-05-07T01:25:04;63;60;
77515;PMS5003;66627;29.424;-98.496;2023-05-07T01:27:28;65;59;
77515;PMS5003;66627;29.424;-98.496;2023-05-07T01:29:54;61;54;
77515;PMS5003;66627;29.424;-98.496;2023-05-07T01:32:21;57;55;
77515;PMS5003;66627;29.424;-98.496;2023-05-07T01:34:44;60;56;
77515;PMS5003;66627;29.424;-98.496;2023-05-07T01:37:10;67;61;
77515;PMS5003;66627;29.424;-98.496;2023-05-07T01:39:37;68;59;
77515;PMS5003;66627;29.424;-98.496;2023-05-07T01:42:01;64;60;
77515;PMS5003;66627;29.424;-98.496;2023-05-07T01:44:26;62;58;
77515;PMS5003;66627;29.424;-98.496;2023-05-07T01:46:51;63;52;
77515;PMS5003;66627;29.424;-98.496;2023-05-07T01:49:18;64;58;
77515;PMS5003;66627;29.424;-98.496;2023-05-07T01:51:44;62;60;
77515;PMS5003;66627;29.424;-98.496;2023-05-07T01:54:09;63;60;
77515;PMS5003;66627;29.424;-98.496;2023-05-07T01:56:34;66;58;
77515;PMS5003;66627;29.424;-98.496;2023-05-07T01:59:00;60;58;
77515;PMS5003;66627;29.424;-98.496;2023-05-07T02:01:25;65;63;
77515;PMS5003;66627;29.424;-98.496;2023-05-07T02:03:50;60;57;
77515;PMS5003;66627;29.424;-98.496;2023-05-07T02:06:15;69;64;
77515;PMS5003;66627;29.424;-98.496;2023-05-07T02:08:40;68;64;
77515;PMS5003;66627;29.424;-98.496;2023-05-07T02:11:11;63;58;
77515;PMS5003;66627;29.424;-98.496;2023-05-07T02:13:32;58;57;
77515;PMS5003;66627;29.424;-98.496;2023-05-07T02:15:57;61;57;
77515;PMS5003;66627;29.424;-98.496;2023-05-07T02:18:23;59;55;
77515;PMS5003;66627;29.424;-98.496;2023-05-07T02:20:48;60;54;
77515;PMS5003;66627;29.424;-98.496;2023-05-07T02:23:13;63;59;
77515;PMS5003;66627;29.424;-98.496;2023-05-07T02:25:44;68;63;
77515;PMS5003;66627;29.424;-98.496;2023-05-07T02:28:04;61;59;
77515;PMS5003;66627;29.424;-98.496;2023-05-07T02:30:30;73;71;
77515;PMS5003;66627;29.424;-98.496;2023-05-07T02:32:56;64;58;
77515;PMS5003;66627;29.424;-98.496;2023-05-07T02:35:21;67;60;
77515;PMS5003;66627;29.424;-98.496;2023-05-07T02:37:51;72;66;
77515;PMS5003;66627;29.424;-98.496;2023-05-07T02:40:12;69;66;
77515;PMS5003;66627;29.424;-98.496;2023-05-07T02:42:37;55;53;
77515;PMS5003;66627;29.424;-98.496;2023-05-07T02:45:02;59;54;
77515;PMS5003;66627;29.424;-98.496;2023-05-07T02:47:32;62;58;
77515;PMS5003;66627;29.424;-98.496;2023-05-07T02:49:53;58;55;
77515;PMS5003;66627;29.424;-98.496;2023-05-07T02:52:24;58;53;
77515;PMS5003;66627;29.424;-98.496;2023-05-07T02:54:45;60;58;
77515;PMS5003;66627;29.424;-98.496;2023-05-07T02:57:10;64;62;
77515;PMS5003;66627;29.424;-98.496;2023-05-07T02:59:36;62;57;
77515;PMS5003;66627;29.424;-98.496;2023-05-07T03:02:01;70;67;
77515;PMS5003;66627;29.424;-98.496;2023-05-07T03:04:27;69;64;
77515;PMS5003;66627;29.424;-98.496;2023-05-07T03:06:53;71;62;
77515;PMS5003;66627;29.424;-98.496;2023-05-07T03:09:17;69;64;
77515;PMS5003;66627;29.424;-98.496;2023-05-07T03:11:43;68;65;
77515;PMS5003;66627;29.424;-98.496;2023-05-07T03:14:09;68;65;
77515;PMS5003;66627;29.424;-98.496;2023-05-07T03:16:35;68;64;
77515;PMS5003;66627;29.424;-98.496;2023-05-07T03:18:59;72;68;
77515;PMS5003;66627;29.424;-98.496;2023-05-07T03:21:25;64;62;
77515;PMS5003;66627;29.424;-98.496;2023-05-07T03:23:51;67;66;
77515;PMS5003;66627;29.424;-98.496;2023-05-07T03:26:16;69;64;
77515;PMS5003;66627;29.424;-98.496;2023-05-07T03:28:42;72;66;
77515;PMS5003;66627;29.424;-98.496;2023-05-07T03:31:08;67;63;
77515;PMS5003;66627;29.424;-98.496;2023-05-07T03:33:33;68;63;
77515;PMS5003;66627;29.424;-98.496;2023-05-07T03:35:57;61;61;
77515;PMS5003;66627;29.424;-98.496;2023-05-07T03:38:23;65;57;
77515;PMS5003;66627;29.424;-98.496;2023-05-07T03:40:53;66;64;
77515;PMS5003;66627;29.424;-98.496;2023-05-07T03:43:14;74;65;
77515;PMS5003;66627;29.424;-98.496;2023-05-07T03:45:40;69;68;
77515;PMS5003;66627;29.424;-98.496;2023-05-07T03:48:05;70;67;
77515;PMS5003;66627;29.424;-98.496;2023-05-07T03:50:31;72;65;
77515;PMS5003;66627;29.424;-98.496;2023-05-07T03:52:56;72;67;
77515;PMS5003;66627;29.424;-98.496;2023-05-07T03:55:21;70;67;
77515;PMS5003;66627;29.424;-98.496;2023-05-07T03:57:46;67;63;
77515;PMS5003;66627;29.424;-98.496;2023-05-07T04:00:13;73;67;
77515;PMS5003;66627;29.424;-98.496;2023-05-07T04:02:37;71;68;
77515;PMS5003;66627;29.424;-98.496;2023-05-07T04:05:03;77;69;
77515;PMS5003;66627;29.424;-98.496;2023-05-07T04:07:29;73;67;
77515;PMS5003;66627;29.424;-98.496;2023-05-07T04:09:53;63;61;
77515;PMS5003;66627;29.424;-98.496;2023-05-07T04:12:18;82;69;
77515;PMS5003;66627;29.424;-98.496;2023-05-07T04:14:44;69;66;
77515;PMS5003;66627;29.424;-98.496;2023-05-07T04:17:09;70;68;
77515;PMS5003;66627;29.424;-98.496;2023-05-07T04:19:35;67;62;
77515;PMS5003;66627;29.424;-98.496;2023-05-07T04:22:02;68;60;
77515;PMS5003;66627;29.424;-98.496;2023-05-07T04:24:27;76;70;
77515;PMS5003;66627;29.424;-98.496;2023-05-07T04:26:52;68;64;
77515;PMS5003;66627;29.424;-98.496;2023-05-07T04:29:18;62;55;
77515;PMS5003;66627;29.424;-98.496;2023-05-07T04:31:43;60;57;
77515;PMS5003;66627;29.424;-98.496;2023-05-07T04:34:09;57;52;
77515;PMS5003;66627;29.424;-98.496;2023-05-07T04:36:33;52;52;
77515;PMS5003;66627;29.424;-98.496;2023-05-07T04:38:58;56;53;
77515;PMS5003;66627;29.424;-98.496;2023-05-07T04:41:24;56;55;
77515;PMS5003;66627;29.424;-98.496;2023-05-07T04:43:49;65;59;
77515;PMS5003;66627;29.424;-98.496;2023-05-07T04:46:15;53;50;
77515;PMS5003;66627;29.424;-98.496;2023-05-07T04:48:45;61;55;
77515;PMS5003;66627;29.424;-98.496;2023-05-07T04:51:06;59;55;
77515;PMS5003;66627;29.424;-98.496;2023-05-07T04:53:31;56;53;
77515;PMS5003;66627;29.424;-98.496;2023-05-07T04:55:57;53;52;
77515;PMS5003;66627;29.424;-98.496;2023-05-07T04:58:23;56;51;
77515;PMS5003;66627;29.424;-98.496;2023-05-07T05:00:47;55;52;
77515;PMS5003;66627;29.424;-98.496;2023-05-07T05:03:13;50;48;
77515;PMS5003;66627;29.424;-98.496;2023-05-07T05:05:38;49;46;
77515;PMS5003;66627;29.424;-98.496;2023-05-07T05:08:04;49;45;
77515;PMS5003;66627;29.424;-98.496;2023-05-07T05:10:29;52;49;
77515;PMS5003;66627;29.424;-98.496;2023-05-07T05:12:55;51;48;
77515;PMS5003;66627;29.424;-98.496;2023-05-07T05:15:21;53;47;
77515;PMS5003;66627;29.424;-98.496;2023-05-07T05:17:47;51;46;
77515;PMS5003;66627;29.424;-98.496;2023-05-07T05:20:12;45;44;
77515;PMS5003;66627;29.424;-98.496;2023-05-07T05:22:37;49;45;
77515;PMS5003;66627;29.424;-98.496;2023-05-07T05:25:03;49;46;
77515;PMS5003;66627;29.424;-98.496;2023-05-07T05:27:33;48;45;
77515;PMS5003;66627;29.424;-98.496;2023-05-07T05:29:53;51;45;
77515;PMS5003;66627;29.424;-98.496;2023-05-07T05:32:19;49;42;
77515;PMS5003;66627;29.424;-98.496;2023-05-07T05:34:45;42;39;
77515;PMS5003;66627;29.424;-98.496;2023-05-07T05:37:10;51;45;
77515;PMS5003;66627;29.424;-98.496;2023-05-07T05:39:36;45;43;
77515;PMS5003;66627;29.424;-98.496;2023-05-07T05:42:00;53;48;
77515;PMS5003;66627;29.424;-98.496;2023-05-07T05:44:26;51;47;
77515;PMS5003;66627;29.424;-98.496;2023-05-07T05:46:51;50;47;
77515;PMS5003;66627;29.424;-98.496;2023-05-07T05:49:16;46;45;
77515;PMS5003;66627;29.424;-98.496;2023-05-07T05:51:42;42;40;
77515;PMS5003;66627;29.424;-98.496;2023-05-07T05:54:08;45;42;
77515;PMS5003;66627;29.424;-98.496;2023-05-07T05:56:33;44;42;
77515;PMS5003;66627;29.424;-98.496;2023-05-07T05:58:59;49;46;
77515;PMS5003;66627;29.424;-98.496;2023-05-07T06:01:25;44;41;
77515;PMS5003;66627;29.424;-98.496;2023-05-07T06:03:51;43;41;
77515;PMS5003;66627;29.424;-98.496;2023-05-07T06:06:15;44;41;
77515;PMS5003;66627;29.424;-98.496;2023-05-07T06:08:41;50;40;
77515;PMS5003;66627;29.424;-98.496;2023-05-07T06:11:06;43;43;
77515;PMS5003;66627;29.424;-98.496;2023-05-07T06:13:31;34;33;
77515;PMS5003;66627;29.424;-98.496;2023-05-07T06:15:57;39;37;
77515;PMS5003;66627;29.424;-98.496;2023-05-07T06:18:22;40;37;
77515;PMS5003;66627;29.424;-98.496;2023-05-07T06:20:48;44;41;
77515;PMS5003;66627;29.424;-98.496;2023-05-07T06:23:14;37;35;
77515;PMS5003;66627;29.424;-98.496;2023-05-07T06:25:47;40;38;
77515;PMS5003;66627;29.424;-98.496;2023-05-07T06:28:03;40;35;
77515;PMS5003;66627;29.424;-98.496;2023-05-07T06:30:29;45;37;
77515;PMS5003;66627;29.424;-98.496;2023-05-07T06:32:54;34;34;
77515;PMS5003;66627;29.424;-98.496;2023-05-07T06:35:20;39;35;
77515;PMS5003;66627;29.424;-98.496;2023-05-07T06:37:45;34;33;
77515;PMS5003;66627;29.424;-98.496;2023-05-07T06:40:11;37;34;
77515;PMS5003;66627;29.424;-98.496;2023-05-07T06:42:36;32;32;
77515;PMS5003;66627;29.424;-98.496;2023-05-07T06:45:01;29;28;
77515;PMS5003;66627;29.424;-98.496;2023-05-07T06:47:26;40;35;
77515;PMS5003;66627;29.424;-98.496;2023-05-07T06:49:56;35;32;
77515;PMS5003;66627;29.424;-98.496;2023-05-07T06:52:17;34;34;
77515;PMS5003;66627;29.424;-98.496;2023-05-07T06:54:42;38;35;
77515;PMS5003;66627;29.424;-98.496;2023-05-07T06:57:08;33;32;
77515;PMS5003;66627;29.424;-98.496;2023-05-07T06:59:34;37;36;
77515;PMS5003;66627;29.424;-98.496;2023-05-07T07:01:59;36;33;
77515;PMS5003;66627;29.424;-98.496;2023-05-07T07:04:24;33;32;
77515;PMS5003;66627;29.424;-98.496;2023-05-07T07:06:54;35;30;
77515;PMS5003;66627;29.424;-98.496;2023-05-07T07:09:15;32;28;
77515;PMS5003;66627;29.424;-98.496;2023-05-07T07:11:41;37;35;
77515;PMS5003;66627;29.424;-98.496;2023-05-07T07:14:06;27;27;
77515;PMS5003;66627;29.424;-98.496;2023-05-07T07:16:31;27;27;
77515;PMS5003;66627;29.424;-98.496;2023-05-07T07:18:57;33;29;
77515;PMS5003;66627;29.424;-98.496;2023-05-07T07:21:27;30;29;
77515;PMS5003;66627;29.424;-98.496;2023-05-07T07:23:48;31;29;
77515;PMS5003;66627;29.424;-98.496;2023-05-07T07:26:13;30;26;
77515;PMS5003;66627;29.424;-98.496;2023-05-07T07:31:04;26;22;
77515;PMS5003;66627;29.424;-98.496;2023-05-07T07:33:30;32;29;
77515;PMS5003;66627;29.424;-98.496;2023-05-07T07:35:56;26;21;
77515;PMS5003;66627;29.424;-98.496;2023-05-07T07:38:21;33;31;
77515;PMS5003;66627;29.424;-98.496;2023-05-07T07:40:50;30;30;
77515;PMS5003;66627;29.424;-98.496;2023-05-07T07:43:11;27;25;
77515;PMS5003;66627;29.424;-98.496;2023-05-07T07:45:37;31;30;
77515;PMS5003;66627;29.424;-98.496;2023-05-07T07:48:07;27;27;
77515;PMS5003;66627;29.424;-98.496;2023-05-07T07:50:27;31;27;
77515;PMS5003;66627;29.424;-98.496;2023-05-07T07:52:53;29;27;
77515;PMS5003;66627;29.424;-98.496;2023-05-07T07:55:19;31;29;
77515;PMS5003;66627;29.424;-98.496;2023-05-07T07:57:44;25;23;
77515;PMS5003;66627;29.424;-98.496;2023-05-07T08:00:11;30;25;
77515;PMS5003;66627;29.424;-98.496;2023-05-07T08:02:35;27;25;
77515;PMS5003;66627;29.424;-98.496;2023-05-07T08:05:06;23;23;
77515;PMS5003;66627;29.424;-98.496;2023-05-07T08:07:27;32;24;
77515;PMS5003;66627;29.424;-98.496;2023-05-07T08:09:52;28;25;
77515;PMS5003;66627;29.424;-98.496;2023-05-07T08:12:17;28;25;
77515;PMS5003;66627;29.424;-98.496;2023-05-07T08:14:43;25;25;
77515;PMS5003;66627;29.424;-98.496;2023-05-07T08:17:08;25;24;
77515;PMS5003;66627;29.424;-98.496;2023-05-07T08:19:34;25;24;
77515;PMS5003;66627;29.424;-98.496;2023-05-07T08:21:59;21;20;
77515;PMS5003;66627;29.424;-98.496;2023-05-07T08:24:25;23;22;
77515;PMS5003;66627;29.424;-98.496;2023-05-07T08:26:50;22;22;
77515;PMS5003;66627;29.424;-98.496;2023-05-07T08:29:15;21;21;
77515;PMS5003;66627;29.424;-98.496;2023-05-07T08:31:40;27;23;
77515;PMS5003;66627;29.424;-98.496;2023-05-07T08:34:06;27;23;
77515;PMS5003;66627;29.424;-98.496;2023-05-07T08:36:31;22;22;
77515;PMS5003;66627;29.424;-98.496;2023-05-07T08:38:56;23;23;
77515;PMS5003;66627;29.424;-98.496;2023-05-07T08:41:22;25;24;
77515;PMS5003;66627;29.424;-98.496;2023-05-07T08:43:48;23;19;
77515;PMS5003;66627;29.424;-98.496;2023-05-07T08:46:13;27;26;
77515;PMS5003;66627;29.424;-98.496;2023-05-07T08:48:38;20;19;
77515;PMS5003;66627;29.424;-98.496;2023-05-07T08:51:03;20;19;
77515;PMS5003;66627;29.424;-98.496;2023-05-07T08:53:29;30;27;
77515;PMS5003;66627;29.424;-98.496;2023-05-07T08:55:54;27;26;
77515;PMS5003;66627;29.424;-98.496;2023-05-07T08:58:19;19;18;
77515;PMS5003;66627;29.424;-98.496;2023-05-07T09:00:44;28;26;
77515;PMS5003;66627;29.424;-98.496;2023-05-07T09:03:10;30;25;
77515;PMS5003;66627;29.424;-98.496;2023-05-07T09:05:35;27;26;
77515;PMS5003;66627;29.424;-98.496;2023-05-07T09:08:01;28;23;
77515;PMS5003;66627;29.424;-98.496;2023-05-07T09:10:26;22;21;
77515;PMS5003;66627;29.424;-98.496;2023-05-07T09:12:53;22;19;
77515;PMS5003;66627;29.424;-98.496;2023-05-07T09:15:22;21;19;
77515;PMS5003;66627;29.424;-98.496;2023-05-07T09:17:43;28;25;
77515;PMS5003;66627;29.424;-98.496;2023-05-07T09:20:08;27;23;
77515;PMS5003;66627;29.424;-98.496;2023-05-07T09:22:35;24;22;
77515;PMS5003;66627;29.424;-98.496;2023-05-07T09:24:59;20;20;
77515;PMS5003;66627;29.424;-98.496;2023-05-07T09:27:25;21;18;
77515;PMS5003;66627;29.424;-98.496;2023-05-07T09:29:51;19;19;
77515;PMS5003;66627;29.424;-98.496;2023-05-07T09:32:16;21;19;
77515;PMS5003;66627;29.424;-98.496;2023-05-07T09:34:41;22;22;
77515;PMS5003;66627;29.424;-98.496;2023-05-07T09:37:06;29;28;
77515;PMS5003;66627;29.424;-98.496;2023-05-07T09:39:40;25;23;
77515;PMS5003;66627;29.424;-98.496;2023-05-07T09:41:57;23;22;
77515;PMS5003;66627;29.424;-98.496;2023-05-07T09:44:22;25;24;
77515;PMS5003;66627;29.424;-98.496;2023-05-07T09:46:51;21;21;
77515;PMS5003;66627;29.424;-98.496;2023-05-07T09:49:16;25;22;
77515;PMS5003;66627;29.424;-98.496;2023-05-07T09:51:39;30;26;
77515;PMS5003;66627;29.424;-98.496;2023-05-07T09:54:05;23;22;
77515;PMS5003;66627;29.424;-98.496;2023-05-07T09:56:31;24;22;
77515;PMS5003;66627;29.424;-98.496;2023-05-07T09:58:57;26;25;
77515;PMS5003;66627;29.424;-98.496;2023-05-07T10:01:26;27;21;
77515;PMS5003;66627;29.424;-98.496;2023-05-07T10:03:47;20;20;
77515;PMS5003;66627;29.424;-98.496;2023-05-07T10:06:12;24;22;
77515;PMS5003;66627;29.424;-98.496;2023-05-07T10:08:37;25;23;
77515;PMS5003;66627;29.424;-98.496;2023-05-07T10:11:03;22;20;
77515;PMS5003;66627;29.424;-98.496;2023-05-07T10:13:27;25;22;
77515;PMS5003;66627;29.424;-98.496;2023-05-07T10:15:52;22;22;
77515;PMS5003;66627;29.424;-98.496;2023-05-07T10:18:18;23;22;
77515;PMS5003;66627;29.424;-98.496;2023-05-07T10:20:44;23;22;
77515;PMS5003;66627;29.424;-98.496;2023-05-07T10:23:09;24;21;
77515;PMS5003;66627;29.424;-98.496;2023-05-07T10:25:34;27;27;
77515;PMS5003;66627;29.424;-98.496;2023-05-07T10:28:00;28;28;
77515;PMS5003;66627;29.424;-98.496;2023-05-07T10:30:26;25;24;
77515;PMS5003;66627;29.424;-98.496;2023-05-07T10:32:52;32;28;
77515;PMS5003;66627;29.424;-98.496;2023-05-07T10:35:17;27;26;
77515;PMS5003;66627;29.424;-98.496;2023-05-07T10:37:42;23;23;
77515;PMS5003;66627;29.424;-98.496;2023-05-07T10:40:08;25;25;
77515;PMS5003;66627;29.424;-98.496;2023-05-07T10:42:32;27;25;
77515;PMS5003;66627;29.424;-98.496;2023-05-07T10:44:59;25;25;
77515;PMS5003;66627;29.424;-98.496;2023-05-07T10:47:23;29;25;
77515;PMS5003;66627;29.424;-98.496;2023-05-07T10:52:16;27;25;
77515;PMS5003;66627;29.424;-98.496;2023-05-07T10:54:44;27;26;
77515;PMS5003;66627;29.424;-98.496;2023-05-07T10:59:31;36;33;
77515;PMS5003;66627;29.424;-98.496;2023-05-07T11:01:57;27;25;
77515;PMS5003;66627;29.424;-98.496;2023-05-07T11:04:22;26;24;
77515;PMS5003;66627;29.424;-98.496;2023-05-07T11:09:12;32;31;
77515;PMS5003;66627;29.424;-98.496;2023-05-07T11:11:44;28;27;
77515;PMS5003;66627;29.424;-98.496;2023-05-07T11:14:03;31;27;
77515;PMS5003;66627;29.424;-98.496;2023-05-07T11:16:29;36;33;
77515;PMS5003;66627;29.424;-98.496;2023-05-07T11:18:54;25;24;
77515;PMS5003;66627;29.424;-98.496;2023-05-07T11:23:58;34;30;
77515;PMS5003;66627;29.424;-98.496;2023-05-07T11:26:10;33;29;
77515;PMS5003;66627;29.424;-98.496;2023-05-07T11:28:36;24;24;
77515;PMS5003;66627;29.424;-98.496;2023-05-07T11:31:01;27;26;
77515;PMS5003;66627;29.424;-98.496;2023-05-07T11:33:26;28;26;
77515;PMS5003;66627;29.424;-98.496;2023-05-07T11:35:52;30;29;
77515;PMS5003;66627;29.424;-98.496;2023-05-07T11:38:22;31;29;
77515;PMS5003;66627;29.424;-98.496;2023-05-07T11:40:49;31;29;
77515;PMS5003;66627;29.424;-98.496;2023-05-07T11:45:33;32;29;
77515;PMS5003;66627;29.424;-98.496;2023-05-07T11:47:58;28;26;
77515;PMS5003;66627;29.424;-98.496;2023-05-07T11:50:23;30;26;
77515;PMS5003;66627;29.424;-98.496;2023-05-07T11:52:50;29;27;
77515;PMS5003;66627;29.424;-98.496;2023-05-07T11:55:14;30;29;
77515;PMS5003;66627;29.424;-98.496;2023-05-07T11:57:40;27;25;
77515;PMS5003;66627;29.424;-98.496;2023-05-07T12:00:06;35;31;
77515;PMS5003;66627;29.424;-98.496;2023-05-07T12:02:31;35;32;
77515;PMS5003;66627;29.424;-98.496;2023-05-07T12:04:56;30;29;
77515;PMS5003;66627;29.424;-98.496;2023-05-07T12:07:21;33;30;
77515;PMS5003;66627;29.424;-98.496;2023-05-07T12:09:47;27;23;
77515;PMS5003;66627;29.424;-98.496;2023-05-07T12:12:12;26;24;
77515;PMS5003;66627;29.424;-98.496;2023-05-07T12:14:38;29;29;
77515;PMS5003;66627;29.424;-98.496;2023-05-07T12:17:03;26;23;
77515;PMS5003;66627;29.424;-98.496;2023-05-07T12:19:29;31;29;
77515;PMS5003;66627;29.424;-98.496;2023-05-07T12:21:53;29;26;
77515;PMS5003;66627;29.424;-98.496;2023-05-07T12:24:19;26;26;
77515;PMS5003;66627;29.424;-98.496;2023-05-07T12:26:44;23;23;
77515;PMS5003;66627;29.424;-98.496;2023-05-07T12:29:09;23;23;
77515;PMS5003;66627;29.424;-98.496;2023-05-07T12:31:35;22;21;
77515;PMS5003;66627;29.424;-98.496;2023-05-07T12:34:05;26;25;
77515;PMS5003;66627;29.424;-98.496;2023-05-07T12:36:26;31;29;
77515;PMS5003;66627;29.424;-98.496;2023-05-07T12:38:52;29;28;
77515;PMS5003;66627;29.424;-98.496;2023-05-07T12:41:17;29;28;
77515;PMS5003;66627;29.424;-98.496;2023-05-07T12:43:43;25;25;
77515;PMS5003;66627;29.424;-98.496;2023-05-07T12:46:07;25;23;
77515;PMS5003;66627;29.424;-98.496;2023-05-07T12:48:33;34;30;
77515;PMS5003;66627;29.424;-98.496;2023-05-07T12:50:59;28;26;
77515;PMS5003;66627;29.424;-98.496;2023-05-07T12:53:25;29;28;
77515;PMS5003;66627;29.424;-98.496;2023-05-07T12:55:49;26;24;
77515;PMS5003;66627;29.424;-98.496;2023-05-07T12:58:15;24;23;
77515;PMS5003;66627;29.424;-98.496;2023-05-07T13:00:40;28;27;
77515;PMS5003;66627;29.424;-98.496;2023-05-07T13:03:05;30;28;
77515;PMS5003;66627;29.424;-98.496;2023-05-07T13:05:30;34;31;
77515;PMS5003;66627;29.424;-98.496;2023-05-07T13:07:56;30;29;
77515;PMS5003;66627;29.424;-98.496;2023-05-07T13:10:22;33;28;
77515;PMS5003;66627;29.424;-98.496;2023-05-07T13:12:47;28;27;
77515;PMS5003;66627;29.424;-98.496;2023-05-07T13:15:12;29;27;
77515;PMS5003;66627;29.424;-98.496;2023-05-07T13:17:42;28;25;
77515;PMS5003;66627;29.424;-98.496;2023-05-07T13:20:03;27;27;
77515;PMS5003;66627;29.424;-98.496;2023-05-07T13:22:29;27;26;
77515;PMS5003;66627;29.424;-98.496;2023-05-07T13:24:54;29;27;
77515;PMS5003;66627;29.424;-98.496;2023-05-07T13:27:20;28;27;
77515;PMS5003;66627;29.424;-98.496;2023-05-07T13:29:45;33;29;
77515;PMS5003;66627;29.424;-98.496;2023-05-07T13:32:11;30;28;
77515;PMS5003;66627;29.424;-98.496;2023-05-07T13:34:36;30;28;
77515;PMS5003;66627;29.424;-98.496;2023-05-07T13:37:02;30;30;
77515;PMS5003;66627;29.424;-98.496;2023-05-07T13:39:32;26;23;
77515;PMS5003;66627;29.424;-98.496;2023-05-07T13:41:52;27;27;
77515;PMS5003;66627;29.424;-98.496;2023-05-07T13:44:23;35;31;
77515;PMS5003;66627;29.424;-98.496;2023-05-07T13:46:43;31;30;
77515;PMS5003;66627;29.424;-98.496;2023-05-07T13:49:13;30;28;
77515;PMS5003;66627;29.424;-98.496;2023-05-07T13:51:33;33;30;
77515;PMS5003;66627;29.424;-98.496;2023-05-07T13:53:59;32;31;
77515;PMS5003;66627;29.424;-98.496;2023-05-07T13:56:24;32;29;
77515;PMS5003;66627;29.424;-98.496;2023-05-07T13:58:50;27;26;
77515;PMS5003;66627;29.424;-98.496;2023-05-07T14:01:16;38;36;
77515;PMS5003;66627;29.424;-98.496;2023-05-07T14:06:07;32;32;
77515;PMS5003;66627;29.424;-98.496;2023-05-07T14:08:32;33;31;
77515;PMS5003;66627;29.424;-98.496;2023-05-07T14:11:03;28;28;
77515;PMS5003;66627;29.424;-98.496;2023-05-07T14:13:28;37;36;
77515;PMS5003;66627;29.424;-98.496;2023-05-07T14:15:48;37;34;
77515;PMS5003;66627;29.424;-98.496;2023-05-07T14:18:13;38;36;
77515;PMS5003;66627;29.424;-98.496;2023-05-07T14:20:39;39;34;
77515;PMS5003;66627;29.424;-98.496;2023-05-07T14:23:04;35;32;
77515;PMS5003;66627;29.424;-98.496;2023-05-07T14:25:30;32;27;
77515;PMS5003;66627;29.424;-98.496;2023-05-07T14:27:55;31;27;
77515;PMS5003;66627;29.424;-98.496;2023-05-07T14:30:21;34;27;
77515;PMS5003;66627;29.424;-98.496;2023-05-07T14:32:46;36;33;
77515;PMS5003;66627;29.424;-98.496;2023-05-07T14:35:11;37;35;
77515;PMS5003;66627;29.424;-98.496;2023-05-07T14:37:36;39;33;
77515;PMS5003;66627;29.424;-98.496;2023-05-07T14:40:01;32;32;
77515;PMS5003;66627;29.424;-98.496;2023-05-07T14:42:26;38;32;
77515;PMS5003;66627;29.424;-98.496;2023-05-07T14:44:52;34;33;
77515;PMS5003;66627;29.424;-98.496;2023-05-07T14:47:18;33;31;
77515;PMS5003;66627;29.424;-98.496;2023-05-07T14:49:43;33;32;
77515;PMS5003;66627;29.424;-98.496;2023-05-07T14:52:08;34;34;
77515;PMS5003;66627;29.424;-98.496;2023-05-07T14:54:34;31;28;
77515;PMS5003;66627;29.424;-98.496;2023-05-07T14:57:05;37;33;
77515;PMS5003;66627;29.424;-98.496;2023-05-07T14:59:25;34;32;
77515;PMS5003;66627;29.424;-98.496;2023-05-07T15:01:50;39;33;
77515;PMS5003;66627;29.424;-98.496;2023-05-07T15:04:16;33;30;
77515;PMS5003;66627;29.424;-98.496;2023-05-07T15:06:41;29;26;
77515;PMS5003;66627;29.424;-98.496;2023-05-07T15:09:07;27;27;
77515;PMS5003;66627;29.424;-98.496;2023-05-07T15:11:33;33;31;
77515;PMS5003;66627;29.424;-98.496;2023-05-07T15:13:58;28;27;
77515;PMS5003;66627;29.424;-98.496;2023-05-07T15:16:28;31;30;
77515;PMS5003;66627;29.424;-98.496;2023-05-07T15:18:48;31;29;
77515;PMS5003;66627;29.424;-98.496;2023-05-07T15:21:14;29;28;
77515;PMS5003;66627;29.424;-98.496;2023-05-07T15:23:39;35;32;
77515;PMS5003;66627;29.424;-98.496;2023-05-07T15:26:05;37;35;
77515;PMS5003;66627;29.424;-98.496;2023-05-07T15:28:30;35;29;
77515;PMS5003;66627;29.424;-98.496;2023-05-07T15:30:55;33;29;
77515;PMS5003;66627;29.424;-98.496;2023-05-07T15:33:21;37;36;
77515;PMS5003;66627;29.424;-98.496;2023-05-07T15:35:46;30;26;
77515;PMS5003;66627;29.424;-98.496;2023-05-07T15:38:12;29;29;
77515;PMS5003;66627;29.424;-98.496;2023-05-07T15:40:37;23;23;
77515;PMS5003;66627;29.424;-98.496;2023-05-07T15:43:03;25;22;
77515;PMS5003;66627;29.424;-98.496;2023-05-07T15:45:28;27;22;
77515;PMS5003;66627;29.424;-98.496;2023-05-07T15:47:58;21;21;
77515;PMS5003;66627;29.424;-98.496;2023-05-07T15:50:19;22;21;